createdAt,value
2018-11-03T00:00:59.456Z,21.53
2018-11-03T00:03:27.667Z,22.73
2018-11-03T00:05:57.001Z,22.97
2018-11-03T00:08:25.627Z,24.83
2018-11-03T00:10:59.807Z,23.27
2018-11-03T00:13:29.182Z,36.57
2018-11-03T00:15:57.113Z,43.67
2018-11-03T00:18:26.147Z,23.97
2018-11-03T00:20:54.137Z,23.77
2018-11-03T00:23:23.331Z,23.07
2018-11-03T00:25:51.256Z,31.23
2018-11-03T00:28:20.773Z,31.47
2018-11-03T00:30:49.738Z,28.40
2018-11-03T00:33:17.709Z,23.47
2018-11-03T00:35:45.654Z,22.03
2018-11-03T00:38:13.595Z,19.73
2018-11-03T00:40:41.559Z,21.00
2018-11-03T00:43:09.515Z,23.13
2018-11-03T00:45:37.447Z,21.10
2018-11-03T00:48:05.975Z,25.07
2018-11-03T00:50:33.932Z,23.33
2018-11-03T00:53:01.887Z,20.77
2018-11-03T00:55:29.828Z,19.23
2018-11-03T00:57:57.833Z,19.20
2018-11-03T01:00:27.235Z,19.23
2018-11-03T01:02:55.190Z,19.20
2018-11-03T01:05:23.241Z,20.43
2018-11-03T01:07:51.186Z,21.40
2018-11-03T01:10:19.136Z,18.20
2018-11-03T01:12:47.093Z,19.33
2018-11-03T01:15:16.003Z,19.17
2018-11-03T01:17:44.066Z,20.27
2018-11-03T01:20:14.146Z,20.47
2018-11-03T01:22:42.157Z,24.60
2018-11-03T01:25:10.435Z,20.30
2018-11-03T01:27:38.473Z,23.27
2018-11-03T01:30:09.125Z,21.43
2018-11-03T01:32:37.145Z,22.40
2018-11-03T01:35:06.081Z,20.50
2018-11-03T01:37:34.039Z,19.60
2018-11-03T01:40:01.974Z,20.60
2018-11-03T01:42:29.934Z,20.17
2018-11-03T01:44:57.858Z,20.60
2018-11-03T01:47:25.776Z,19.23
2018-11-03T01:49:53.766Z,16.93
2018-11-03T01:52:21.713Z,18.27
2018-11-03T01:54:49.643Z,18.10
2018-11-03T01:57:17.563Z,20.57
2018-11-03T01:59:45.489Z,21.03
2018-11-03T02:02:13.417Z,19.33
2018-11-03T02:04:41.354Z,19.70
2018-11-03T02:07:09.400Z,20.13
2018-11-03T02:09:37.406Z,19.90
2018-11-03T02:12:05.398Z,21.90
2018-11-03T02:14:33.323Z,25.47
2018-11-03T02:17:01.246Z,24.90
2018-11-03T02:22:21.999Z,20.63
2018-11-03T02:24:49.913Z,19.10
2018-11-03T02:27:17.865Z,21.30
2018-11-03T02:29:48.282Z,21.83
2018-11-03T02:32:18.779Z,22.33
2018-11-03T02:34:46.723Z,20.73
2018-11-03T02:37:14.647Z,17.37
2018-11-03T02:39:42.632Z,20.83
2018-11-03T02:42:10.590Z,19.73
2018-11-03T02:44:38.494Z,20.70
2018-11-03T02:47:06.554Z,21.37
2018-11-03T02:49:34.549Z,23.73
2018-11-03T02:52:02.529Z,21.63
2018-11-03T02:54:38.805Z,22.00
2018-11-03T02:59:32.839Z,19.83
2018-11-03T03:02:00.790Z,19.07
2018-11-03T03:04:28.712Z,20.13
2018-11-03T03:06:56.670Z,17.17
2018-11-03T03:09:24.636Z,19.73
2018-11-03T03:11:52.644Z,18.17
2018-11-03T03:14:20.577Z,18.27
2018-11-03T03:16:48.557Z,19.70
2018-11-03T03:19:23.196Z,18.33
2018-11-03T03:21:52.601Z,20.63
2018-11-03T03:24:20.562Z,20.23
2018-11-03T03:26:49.392Z,21.07
2018-11-03T03:29:17.392Z,24.00
2018-11-03T03:31:45.266Z,21.10
2018-11-03T03:34:13.272Z,20.20
2018-11-03T03:36:41.227Z,20.57
2018-11-03T03:39:10.418Z,19.10
2018-11-03T03:41:38.691Z,21.83
2018-11-03T03:44:07.102Z,19.23
2018-11-03T03:46:35.796Z,20.13
2018-11-03T03:49:04.284Z,20.23
2018-11-03T03:51:32.216Z,19.60
2018-11-03T03:54:00.158Z,20.87
2018-11-03T03:56:28.090Z,20.97
2018-11-03T03:58:56.096Z,22.80
2018-11-03T04:01:24.023Z,20.37
2018-11-03T04:03:52.004Z,19.67
2018-11-03T04:06:19.930Z,21.20
2018-11-03T04:08:47.875Z,20.10
2018-11-03T04:11:15.819Z,21.90
2018-11-03T04:13:43.887Z,23.57
2018-11-03T04:16:11.874Z,24.67
2018-11-03T04:18:40.331Z,22.73
2018-11-03T04:21:08.358Z,25.73
2018-11-03T04:23:36.284Z,25.33
2018-11-03T04:26:04.391Z,24.60
2018-11-03T04:28:32.376Z,27.93
2018-11-03T04:31:00.247Z,26.97
2018-11-03T04:33:28.200Z,24.60
2018-11-03T04:35:56.124Z,25.13
2018-11-03T04:38:24.027Z,25.67
2018-11-03T04:40:51.955Z,25.67
2018-11-03T04:43:19.920Z,24.00
2018-11-03T04:45:47.858Z,23.40
2018-11-03T04:48:15.835Z,22.73
2018-11-03T04:50:43.810Z,24.20
2018-11-03T04:53:11.706Z,20.90
2018-11-03T04:55:39.646Z,23.23
2018-11-03T04:58:07.597Z,22.23
2018-11-03T05:00:35.504Z,22.70
2018-11-03T05:03:03.890Z,24.50
2018-11-03T05:05:31.851Z,21.93
2018-11-03T05:07:59.779Z,19.37
2018-11-03T05:10:27.751Z,21.20
2018-11-03T05:12:55.664Z,19.03
2018-11-03T05:15:23.626Z,19.97
2018-11-03T05:17:51.527Z,22.53
2018-11-03T05:20:19.522Z,21.17
2018-11-03T05:22:47.452Z,18.43
2018-11-03T05:25:15.414Z,18.57
2018-11-03T05:27:43.363Z,21.40
2018-11-03T05:30:11.285Z,18.30
2018-11-03T05:32:39.183Z,19.10
2018-11-03T05:35:07.201Z,21.03
2018-11-03T05:37:35.196Z,18.97
2018-11-03T05:40:03.199Z,18.53
2018-11-03T05:42:31.154Z,19.97
2018-11-03T05:44:59.070Z,19.07
2018-11-03T05:47:26.996Z,21.03
2018-11-03T05:49:54.967Z,20.40
2018-11-03T05:52:22.960Z,20.57
2018-11-03T05:54:50.888Z,17.93
2018-11-03T05:57:18.808Z,17.97
2018-11-03T05:59:46.718Z,18.73
2018-11-03T06:02:14.680Z,20.17
2018-11-03T06:04:42.632Z,19.70
2018-11-03T06:07:10.556Z,21.37
2018-11-03T06:09:38.627Z,19.53
2018-11-03T06:12:12.670Z,18.83
2018-11-03T06:14:40.575Z,19.77
2018-11-03T06:17:08.535Z,20.47
2018-11-03T06:19:36.491Z,34.77
2018-11-03T06:22:04.414Z,25.93
2018-11-03T06:24:32.356Z,30.80
2018-11-03T06:27:00.319Z,31.07
2018-11-03T06:29:28.230Z,21.47
2018-11-03T06:31:56.133Z,21.20
2018-11-03T06:34:24.107Z,20.33
2018-11-03T06:36:54.151Z,20.57
2018-11-03T06:39:22.058Z,21.63
2018-11-03T06:41:50.014Z,23.27
2018-11-03T06:44:17.965Z,24.60
2018-11-03T06:46:46.046Z,20.37
2018-11-03T06:49:20.839Z,18.57
2018-11-03T06:51:50.010Z,22.10
2018-11-03T06:54:17.926Z,20.00
2018-11-03T06:56:45.989Z,22.20
2018-11-03T06:59:13.994Z,20.70
2018-11-03T07:01:41.923Z,18.50
2018-11-03T07:04:09.883Z,20.70
2018-11-03T07:06:37.803Z,21.13
2018-11-03T07:09:08.625Z,19.70
2018-11-03T07:11:37.214Z,20.10
2018-11-03T07:14:05.326Z,22.00
2018-11-03T07:16:33.570Z,19.57
2018-11-03T07:19:01.561Z,22.97
2018-11-03T07:21:29.555Z,23.70
2018-11-03T07:23:57.481Z,27.50
2018-11-03T07:26:25.884Z,26.73
2018-11-03T07:28:53.859Z,25.20
2018-11-03T07:31:21.848Z,23.90
2018-11-03T07:33:50.271Z,25.60
2018-11-03T07:36:18.181Z,27.30
2018-11-03T07:38:46.221Z,26.97
2018-11-03T07:41:14.205Z,25.80
2018-11-03T07:43:42.117Z,30.30
2018-11-03T07:46:10.052Z,30.83
2018-11-03T07:48:38.090Z,25.30
2018-11-03T07:51:05.998Z,25.87
2018-11-03T07:53:34.019Z,27.43
2018-11-03T07:56:05.121Z,25.93
2018-11-03T07:58:33.110Z,24.70
2018-11-03T08:01:01.147Z,27.13
2018-11-03T08:03:29.249Z,25.90
2018-11-03T08:05:57.227Z,23.60
2018-11-03T08:08:25.421Z,24.47
2018-11-03T08:10:53.377Z,23.17
2018-11-03T08:13:21.338Z,23.53
2018-11-03T08:15:49.324Z,23.13
2018-11-03T08:18:17.267Z,24.60
2018-11-03T08:20:45.276Z,43.83
2018-11-03T08:23:13.235Z,29.20
2018-11-03T08:25:41.218Z,26.70
2018-11-03T08:28:09.211Z,28.93
2018-11-03T08:30:37.116Z,26.80
2018-11-03T08:33:05.491Z,29.63
2018-11-03T08:35:33.438Z,32.63
2018-11-03T08:38:01.891Z,28.97
2018-11-03T08:40:29.897Z,28.73
2018-11-03T08:43:13.323Z,27.63
2018-11-03T08:45:44.396Z,25.97
2018-11-03T08:48:12.431Z,28.53
2018-11-03T08:50:40.394Z,32.10
2018-11-03T08:53:08.372Z,34.60
2018-11-03T08:55:36.391Z,32.00
2018-11-03T08:58:04.911Z,31.00
2018-11-03T09:00:33.004Z,31.00
2018-11-03T09:03:00.953Z,31.67
2018-11-03T09:05:28.958Z,30.27
2018-11-03T09:07:56.929Z,26.90
2018-11-03T09:10:24.896Z,28.63
2018-11-03T09:12:57.575Z,26.33
2018-11-03T09:15:25.539Z,27.63
2018-11-03T09:17:55.464Z,27.43
2018-11-03T09:20:25.654Z,24.07
2018-11-03T09:22:53.604Z,22.80
2018-11-03T09:25:21.581Z,28.50
2018-11-03T09:27:49.575Z,38.57
2018-11-03T09:30:18.581Z,29.63
2018-11-03T09:32:46.530Z,34.13
2018-11-03T09:35:15.351Z,33.97
2018-11-03T09:37:43.352Z,32.60
2018-11-03T09:40:14.441Z,29.17
2018-11-03T09:42:43.381Z,27.07
2018-11-03T09:45:11.974Z,21.03
2018-11-03T09:47:40.399Z,19.97
2018-11-03T09:50:09.910Z,23.50
2018-11-03T09:52:38.403Z,23.53
2018-11-03T09:55:08.517Z,43.10
2018-11-03T09:57:36.539Z,33.50
2018-11-03T10:00:08.427Z,24.70
2018-11-03T10:02:36.368Z,22.43
2018-11-03T10:05:05.225Z,20.50
2018-11-03T10:07:33.179Z,21.97
2018-11-03T10:10:01.225Z,18.43
2018-11-03T10:12:29.241Z,19.87
2018-11-03T10:14:57.219Z,23.63
2018-11-03T10:17:31.744Z,16.87
2018-11-03T10:20:02.759Z,18.27
2018-11-03T10:22:32.015Z,15.20
2018-11-03T10:25:03.831Z,13.83
2018-11-03T10:27:36.109Z,14.90
2018-11-03T10:30:05.222Z,12.37
2018-11-03T10:32:34.230Z,13.43
2018-11-03T10:35:02.307Z,13.13
2018-11-03T10:37:34.201Z,13.30
2018-11-03T10:40:16.957Z,13.67
2018-11-03T10:46:15.432Z,12.40
2018-11-03T10:48:45.213Z,13.37
2018-11-03T10:51:15.244Z,12.10
2018-11-03T11:03:03.892Z,13.13
2018-11-03T11:05:43.277Z,21.67
2018-11-03T11:08:16.997Z,12.23
2018-11-03T11:10:50.431Z,14.93
2018-11-03T11:13:24.238Z,13.17
2018-11-03T11:15:54.307Z,17.10
2018-11-03T11:18:22.302Z,9.40
2018-11-03T11:20:53.440Z,10.80
2018-11-03T11:23:21.811Z,10.27
2018-11-03T11:25:49.833Z,11.33
2018-11-03T11:28:18.708Z,10.73
2018-11-03T11:30:47.816Z,10.40
2018-11-03T11:33:16.973Z,15.50
2018-11-03T11:35:45.839Z,13.93
2018-11-03T11:38:14.581Z,15.97
2018-11-03T11:40:43.147Z,12.77
2018-11-03T11:43:13.118Z,11.20
2018-11-03T11:45:41.130Z,9.90
2018-11-03T11:48:10.159Z,10.03
2018-11-03T11:50:38.268Z,8.10
2018-11-03T11:53:07.008Z,8.03
2018-11-03T11:55:36.035Z,10.07
2018-11-03T11:58:06.011Z,6.90
2018-11-03T12:00:34.138Z,7.90
2018-11-03T12:03:02.869Z,10.50
2018-11-03T12:05:31.748Z,8.40
2018-11-03T12:07:59.790Z,9.80
2018-11-03T12:10:29.261Z,8.73
2018-11-03T12:12:57.345Z,9.90
2018-11-03T12:15:26.133Z,11.30
2018-11-03T12:17:55.001Z,9.53
2018-11-03T12:20:23.099Z,8.60
2018-11-03T12:22:52.085Z,7.97
2018-11-03T12:25:20.940Z,6.30
2018-11-03T12:27:51.596Z,11.40
2018-11-03T12:30:19.783Z,7.17
2018-11-03T12:32:48.561Z,6.50
2018-11-03T12:35:17.355Z,8.60
2018-11-03T12:37:45.427Z,6.87
2018-11-03T12:40:15.902Z,8.23
2018-11-03T12:42:47.227Z,7.90
2018-11-03T12:45:15.781Z,8.37
2018-11-03T12:47:45.296Z,8.77
2018-11-03T12:50:17.318Z,6.93
2018-11-03T12:52:45.471Z,9.03
2018-11-03T12:55:14.213Z,6.80
2018-11-03T12:57:44.167Z,6.27
2018-11-03T13:00:15.594Z,6.53
2018-11-03T13:02:45.427Z,5.87
2018-11-03T13:05:17.336Z,7.67
2018-11-03T13:07:48.012Z,6.90
2018-11-03T13:10:16.921Z,6.70
2018-11-03T13:12:46.539Z,7.03
2018-11-03T13:15:15.931Z,7.43
2018-11-03T13:17:45.637Z,5.70
2018-11-03T13:20:15.822Z,6.83
2018-11-03T13:22:44.779Z,7.07
2018-11-03T13:25:16.091Z,4.80
2018-11-03T13:27:47.048Z,5.63
2018-11-03T13:30:18.060Z,6.60
2018-11-03T13:32:47.204Z,7.53
2018-11-03T13:35:16.325Z,6.67
2018-11-03T13:37:56.397Z,6.60
2018-11-03T13:40:27.046Z,7.40
2018-11-03T13:42:57.790Z,5.70
2018-11-03T13:45:29.928Z,6.47
2018-11-03T13:47:59.072Z,5.03
2018-11-03T13:50:28.760Z,9.77
2018-11-03T13:52:58.265Z,7.07
2018-11-03T13:55:27.644Z,7.27
2018-11-03T13:57:56.360Z,5.67
2018-11-03T14:00:26.313Z,6.77
2018-11-03T14:02:59.199Z,6.67
2018-11-03T14:05:27.241Z,6.10
2018-11-03T14:07:56.027Z,7.87
2018-11-03T14:10:24.831Z,5.90
2018-11-03T14:12:53.824Z,4.90
2018-11-03T14:15:21.875Z,4.50
2018-11-03T14:17:51.527Z,4.97
2018-11-03T14:20:19.695Z,5.03
2018-11-03T14:23:05.868Z,7.90
2018-11-03T14:25:34.910Z,7.87
2018-11-03T14:28:03.639Z,7.30
2018-11-03T14:30:32.243Z,8.27
2018-11-03T14:33:02.872Z,7.37
2018-11-03T14:35:32.239Z,7.83
2018-11-03T14:38:03.100Z,6.00
2018-11-03T14:40:32.706Z,6.50
2018-11-03T14:43:01.482Z,5.43
2018-11-03T14:45:30.393Z,6.80
2018-11-03T14:47:58.981Z,5.57
2018-11-03T14:50:33.696Z,6.27
2018-11-03T14:53:07.624Z,5.53
2018-11-03T14:55:35.676Z,7.13
2018-11-03T14:58:05.163Z,6.33
2018-11-03T15:00:35.535Z,8.30
2018-11-03T15:03:05.301Z,5.77
2018-11-03T15:05:34.855Z,6.87
2018-11-03T15:08:02.943Z,5.13
2018-11-03T15:10:33.964Z,6.73
2018-11-03T15:13:03.054Z,9.30
2018-11-03T15:15:31.105Z,6.43
2018-11-03T15:18:00.085Z,5.50
2018-11-03T15:20:29.146Z,15.03
2018-11-03T15:23:02.498Z,7.00
2018-11-03T15:25:31.662Z,6.13
2018-11-03T15:28:06.117Z,5.50
2018-11-03T15:30:35.043Z,6.30
2018-11-03T15:33:03.693Z,6.37
2018-11-03T15:35:31.731Z,6.33
2018-11-03T15:38:01.809Z,5.33
2018-11-03T15:40:29.891Z,5.30
2018-11-03T15:42:58.774Z,9.93
2018-11-03T15:45:30.923Z,8.87
2018-11-03T15:47:59.817Z,8.53
2018-11-03T15:50:28.559Z,8.50
2018-11-03T15:53:17.657Z,19.20
2018-11-03T15:55:50.727Z,12.93
2018-11-03T15:58:21.381Z,11.47
2018-11-03T16:00:53.177Z,9.17
2018-11-03T16:03:35.291Z,9.53
2018-11-03T16:06:08.425Z,12.37
2018-11-03T16:08:37.088Z,12.37
2018-11-03T16:11:07.718Z,11.23
2018-11-03T16:13:35.773Z,9.63
2018-11-03T16:16:05.631Z,10.87
2018-11-03T16:18:35.347Z,9.93
2018-11-03T16:21:06.799Z,11.43
2018-11-03T16:23:35.944Z,10.77
2018-11-03T16:26:06.744Z,11.47
2018-11-03T16:28:35.327Z,10.20
2018-11-03T16:31:04.977Z,9.97
2018-11-03T16:33:40.184Z,8.67
2018-11-03T16:36:11.250Z,153.60
2018-11-03T16:38:44.539Z,135.80
2018-11-03T16:41:15.388Z,172.50
2018-11-03T16:43:45.611Z,57.87
2018-11-03T16:46:15.315Z,53.83
2018-11-03T16:48:45.481Z,103.33
2018-11-03T16:51:18.220Z,33.27
2018-11-03T16:53:48.077Z,45.13
2018-11-03T16:56:23.540Z,19.33
2018-11-03T16:58:54.695Z,16.03
2018-11-03T17:01:23.420Z,13.67
2018-11-03T17:03:56.350Z,10.00
2018-11-03T17:06:25.548Z,9.33
2018-11-03T17:08:58.015Z,9.43
2018-11-03T17:11:30.871Z,8.37
2018-11-03T17:14:06.034Z,10.63
2018-11-03T17:16:42.273Z,10.67
2018-11-03T17:19:12.221Z,10.77
2018-11-03T17:21:42.935Z,9.57
2018-11-03T17:24:15.325Z,14.00
2018-11-03T17:26:49.654Z,39.47
2018-11-03T17:29:20.278Z,17.13
2018-11-03T17:31:55.244Z,17.47
2018-11-03T17:34:25.023Z,13.20
2018-11-03T17:36:56.395Z,17.23
2018-11-03T17:39:25.831Z,13.43
2018-11-03T17:41:56.256Z,14.30
2018-11-03T17:44:29.780Z,15.97
2018-11-03T17:46:59.330Z,13.10
2018-11-03T17:49:29.191Z,10.37
2018-11-03T17:51:59.131Z,13.27
2018-11-03T17:54:27.932Z,12.97
2018-11-03T17:57:00.539Z,14.30
2018-11-03T17:59:34.386Z,15.70
2018-11-03T18:02:05.503Z,16.07
2018-11-03T18:04:37.580Z,18.07
2018-11-03T18:07:07.143Z,14.70
2018-11-03T18:09:39.062Z,21.47
2018-11-03T18:12:13.953Z,16.17
2018-11-03T18:14:44.348Z,17.03
2018-11-03T18:17:30.575Z,14.03
2018-11-03T18:20:13.665Z,15.63
2018-11-03T18:23:02.034Z,16.57
2018-11-03T18:25:38.895Z,15.63
2018-11-03T18:28:23.598Z,17.63
2018-11-03T18:31:23.669Z,17.00
2018-11-03T18:34:09.327Z,15.70
2018-11-03T18:37:25.351Z,16.53
2018-11-03T18:40:08.479Z,17.03
2018-11-03T18:42:42.156Z,13.77
2018-11-03T18:45:27.303Z,15.57
2018-11-03T18:47:56.850Z,16.43
2018-11-03T18:50:36.996Z,15.80
2018-11-03T18:56:11.759Z,16.53
2018-11-03T18:58:40.979Z,17.97
2018-11-03T19:01:12.720Z,17.70
2018-11-03T19:03:48.104Z,16.90
2018-11-03T19:06:19.224Z,16.90
2018-11-03T19:08:50.644Z,17.07
2018-11-03T19:11:22.591Z,18.57
2018-11-03T19:13:53.809Z,18.87
2018-11-03T19:16:29.409Z,21.13
2018-11-03T19:19:00.850Z,18.50
2018-11-03T19:21:32.296Z,18.67
2018-11-03T19:24:10.136Z,22.57
2018-11-03T19:26:46.082Z,22.57
2018-11-03T19:29:15.230Z,18.73
2018-11-03T19:31:46.595Z,18.83
2018-11-03T19:34:16.658Z,19.90
2018-11-03T19:36:47.281Z,19.13
2018-11-03T19:39:24.799Z,19.53
2018-11-03T19:41:54.984Z,21.77
2018-11-03T19:44:26.074Z,21.13
2018-11-03T19:46:55.661Z,21.77
2018-11-03T19:49:33.872Z,24.43
2018-11-03T19:52:05.679Z,24.63
2018-11-03T19:54:37.304Z,23.43
2018-11-03T19:57:07.738Z,18.73
2018-11-03T19:59:38.376Z,17.60
2018-11-03T20:02:08.263Z,19.03
2018-11-03T20:04:38.321Z,21.43
2018-11-03T20:07:13.254Z,19.27
2018-11-03T20:09:44.055Z,19.97
2018-11-03T20:12:13.976Z,19.37
2018-11-03T20:14:43.590Z,21.20
2018-11-03T20:17:13.120Z,18.00
2018-11-03T20:19:43.165Z,20.90
2018-11-03T20:22:14.718Z,21.63
2018-11-03T20:24:45.125Z,19.67
2018-11-03T20:27:13.989Z,22.50
2018-11-03T20:29:45.864Z,27.10
2018-11-03T20:32:14.628Z,24.00
2018-11-03T20:34:44.936Z,25.93
2018-11-03T20:37:14.451Z,25.10
2018-11-03T20:39:46.641Z,25.23
2018-11-03T20:42:17.074Z,25.30
2018-11-03T20:44:47.192Z,22.50
2018-11-03T20:47:17.218Z,21.70
2018-11-03T20:49:47.007Z,22.93
2018-11-03T20:52:20.719Z,21.77
2018-11-03T20:54:50.896Z,22.80
2018-11-03T20:57:20.339Z,22.83
2018-11-03T20:59:48.958Z,21.37
2018-11-03T21:02:19.220Z,21.03
2018-11-03T21:04:50.374Z,20.37
2018-11-03T21:07:22.505Z,22.50
2018-11-03T21:09:58.803Z,23.70
2018-11-03T21:12:29.599Z,21.57
2018-11-03T21:15:00.138Z,21.57
2018-11-03T21:17:36.216Z,20.43
2018-11-03T21:20:05.726Z,20.00
2018-11-03T21:22:38.583Z,19.80
2018-11-03T21:25:09.971Z,21.97
2018-11-03T21:27:43.503Z,21.83
2018-11-03T21:30:15.912Z,21.97
2018-11-03T21:32:46.317Z,21.00
2018-11-03T21:35:17.541Z,24.63
2018-11-03T21:38:04.839Z,20.40
2018-11-03T21:40:35.947Z,22.07
2018-11-03T21:43:04.707Z,23.17
2018-11-03T21:45:37.968Z,22.20
2018-11-03T21:48:09.583Z,21.17
2018-11-03T21:50:41.434Z,23.63
2018-11-03T21:53:10.428Z,23.77
2018-11-03T21:55:43.190Z,23.70
2018-11-03T21:58:12.630Z,23.33
2018-11-03T22:00:46.420Z,23.10
2018-11-03T22:03:16.427Z,25.63
2018-11-03T22:05:48.064Z,23.77
2018-11-03T22:08:18.373Z,24.83
2018-11-03T22:10:49.946Z,23.47
2018-11-03T22:13:18.476Z,23.33
2018-11-03T22:15:47.471Z,22.77
2018-11-03T22:18:16.093Z,23.07
2018-11-03T22:20:45.572Z,22.43
2018-11-03T22:23:14.850Z,24.00
2018-11-03T22:25:43.601Z,26.97
2018-11-03T22:28:12.932Z,24.37
2018-11-03T22:30:42.447Z,26.17
2018-11-03T22:33:11.902Z,24.77
2018-11-03T22:35:41.522Z,25.10
2018-11-03T22:38:10.114Z,25.93
2018-11-03T22:40:38.585Z,25.77
2018-11-03T22:43:07.305Z,27.00
2018-11-03T22:45:35.704Z,26.47
2018-11-03T22:48:04.956Z,24.60
2018-11-03T22:50:33.679Z,25.97
2018-11-03T22:53:02.190Z,26.57
2018-11-03T22:55:31.186Z,25.00
2018-11-03T22:58:00.149Z,23.33
2018-11-03T23:00:29.275Z,24.77
2018-11-03T23:02:58.164Z,27.33
2018-11-03T23:05:27.030Z,25.37
2018-11-03T23:07:55.696Z,25.27
2018-11-03T23:10:24.446Z,27.17
2018-11-03T23:12:53.293Z,28.73
2018-11-03T23:15:22.228Z,24.63
2018-11-03T23:17:51.114Z,24.07
2018-11-03T23:20:19.716Z,25.33
2018-11-03T23:22:48.473Z,24.77
2018-11-03T23:25:17.180Z,25.23
2018-11-03T23:27:46.049Z,26.43
2018-11-03T23:30:14.533Z,23.83
2018-11-03T23:32:42.975Z,23.33
2018-11-03T23:35:13.140Z,23.43
2018-11-03T23:37:42.210Z,25.90
2018-11-03T23:40:11.129Z,22.93
2018-11-03T23:42:39.983Z,23.50
2018-11-03T23:45:09.516Z,24.63
2018-11-03T23:47:38.410Z,25.63
2018-11-03T23:50:08.220Z,27.03
2018-11-03T23:52:36.832Z,24.83
2018-11-03T23:55:06.008Z,24.67
2018-11-03T23:57:34.749Z,25.33
